Burnside, LA (70738)

7:26 PM CDT on April 24, 2015 (GMT -0500)
St. Mary Plantation | | Change Station
CLOSE
Current Station
Personal Weather Station
Location: Union, LA
Elevation: 20 ft
Nearby Weather Stations
Active Advisory: Tornado Watch

Elev 20 ft 30.10 °N, 90.91 °W | Updated 1 minute ago

Overcast
Overcast
70.0 °F
Feels Like 70.0 °F
N
5.6
Wind Variable Wind from ESE
Gusts 7.4 mph

Today
High -- | Low -- °F
--% Chance of Precip.
Yesterday
High -- | Low -- °F
Precip. -- in
6:27 AM 7:36 PM
Waxing Crescent, 40% visible
Pressure 29.84 in
Visibility 10.0 miles
Clouds Overcast 1300 ft
Dew Point 67 °F
Humidity 90%
Rainfall 0.00 in
Snow Depth Not available.
UV 0.0 out of 12
Pollen 7.70 out of 12
Air Quality Not available.
Flu Activity Sporadic
SPECI KBTR 250015Z 16007KT 10SM OVC013 23/20 A2984 RMK AO2 T02330200

More Conditions Fewer Conditions

Pressure 29.84 in
Visibility 10.0 miles
Clouds Overcast 1300 ft
Dew Point 67 °F
Humidity 90%
Rainfall 0.00 in
Snow Depth Not available.
UV 0.0 out of 12
Pollen 7.70 out of 12
Air Quality Not available.
Flu Activity Sporadic
SPECI KBTR 250015Z 16007KT 10SM OVC013 23/20 A2984 RMK AO2 T02330200

More Conditions Fewer Conditions

There is an enhanced risk of severe weather for parts of Texas, Louisiana, southern Arkansas, and Kansas. A slight risk of severe weather encompasses a wide area of the Plains and Lower Mississippi Valley as well. This means severe thunderstorms will be capable of producing strong wind, large hail, heavy rain, and the possibility of tornadoes into the evening.

10-Day Weather Forecast

Almanac

Astronomy

Apr. 24, 2015 Rise Set
Actual Time
Civil Twilight
Nautical Twilight
Astronomical Twilight
Moon
Length of Visible Light
Length of Day
Tomorrow will be .
, % of the Moon is Illuminated

Today's Extremes

State Highs State Lows

Community

WunderPhotos

Upload Photos

1,816,515 photos uploaded!

WunderBlogs® & News

Nearby

Air Quality

  Air Quality AQ Index Pollutant
Not available.

Snow Depth

Station Depth Elevation

Earthquake Activity

City Distance Mag. Time & Date
Minimum magnitude displayed is 2.5.

Coastal Water Temperatures

Place Temperature

Stations

Nearby Weather Stations

Station Location Temp. Windchill Dew Point Humidity Wind Precip. Elev Updated Type
                   
Tornado Watch
Statement as of 6:30 PM CDT on April 24, 2015


The National Weather Service has cancelled Tornado Watch 101 for
the following areas

In Louisiana this cancels 7 parishes

In southeast Louisiana

Ascension Assumption Lafourche
St. Charles St. James St. John The Baptist
Terrebonne

This includes the cities of... Bayou Cane... cut off... Destrehan...
Donaldsonville... Galliano... Gonzales... Gramercy... Houma...
Labadieville... LaPlace... LaRose... Lutcher... Norco...
Paincourtville... Pierre Part... Raceland... Reserve and Thibodaux.